sensor_id;sensor_type;location;lat;lon;timestamp;P1;durP1;ratioP1;P2;durP2;ratioP2
72358;SDS011;60317;48.880;-0.862;2023-02-24T00:00:09;5.72;;;2.90;;
72358;SDS011;60317;48.880;-0.862;2023-02-24T00:02:39;4.50;;;2.55;;
72358;SDS011;60317;48.880;-0.862;2023-02-24T00:05:07;4.90;;;2.83;;
72358;SDS011;60317;48.880;-0.862;2023-02-24T00:07:34;4.38;;;2.85;;
72358;SDS011;60317;48.880;-0.862;2023-02-24T00:10:01;5.05;;;2.80;;
72358;SDS011;60317;48.880;-0.862;2023-02-24T00:12:27;3.75;;;3.03;;
72358;SDS011;60317;48.880;-0.862;2023-02-24T00:14:54;3.60;;;2.60;;
72358;SDS011;60317;48.880;-0.862;2023-02-24T00:17:20;4.50;;;2.85;;
72358;SDS011;60317;48.880;-0.862;2023-02-24T00:19:47;4.30;;;2.95;;
72358;SDS011;60317;48.880;-0.862;2023-02-24T00:22:14;4.07;;;2.80;;
72358;SDS011;60317;48.880;-0.862;2023-02-24T00:24:41;4.90;;;2.78;;
72358;SDS011;60317;48.880;-0.862;2023-02-24T00:27:08;4.85;;;2.83;;
72358;SDS011;60317;48.880;-0.862;2023-02-24T00:29:34;4.03;;;2.90;;
72358;SDS011;60317;48.880;-0.862;2023-02-24T00:32:02;4.95;;;3.45;;
72358;SDS011;60317;48.880;-0.862;2023-02-24T00:34:30;4.95;;;2.70;;
72358;SDS011;60317;48.880;-0.862;2023-02-24T00:36:58;5.65;;;2.90;;
72358;SDS011;60317;48.880;-0.862;2023-02-24T00:39:26;4.68;;;2.70;;
72358;SDS011;60317;48.880;-0.862;2023-02-24T00:41:54;4.55;;;2.63;;
72358;SDS011;60317;48.880;-0.862;2023-02-24T00:44:20;5.43;;;2.95;;
72358;SDS011;60317;48.880;-0.862;2023-02-24T00:46:47;4.22;;;2.72;;
72358;SDS011;60317;48.880;-0.862;2023-02-24T00:49:14;3.42;;;2.45;;
72358;SDS011;60317;48.880;-0.862;2023-02-24T00:51:42;5.13;;;2.80;;
72358;SDS011;60317;48.880;-0.862;2023-02-24T00:54:10;3.42;;;2.30;;
72358;SDS011;60317;48.880;-0.862;2023-02-24T00:56:38;3.38;;;2.50;;
72358;SDS011;60317;48.880;-0.862;2023-02-24T00:59:04;4.20;;;3.10;;
72358;SDS011;60317;48.880;-0.862;2023-02-24T01:01:32;5.22;;;3.17;;
72358;SDS011;60317;48.880;-0.862;2023-02-24T01:03:59;4.07;;;2.60;;
72358;SDS011;60317;48.880;-0.862;2023-02-24T01:06:28;4.05;;;2.47;;
72358;SDS011;60317;48.880;-0.862;2023-02-24T01:08:55;5.00;;;2.65;;
72358;SDS011;60317;48.880;-0.862;2023-02-24T01:11:24;4.38;;;2.67;;
72358;SDS011;60317;48.880;-0.862;2023-02-24T01:13:53;3.80;;;2.95;;
72358;SDS011;60317;48.880;-0.862;2023-02-24T01:16:20;4.22;;;2.80;;
72358;SDS011;60317;48.880;-0.862;2023-02-24T01:18:46;3.15;;;2.30;;
72358;SDS011;60317;48.880;-0.862;2023-02-24T01:21:13;4.88;;;2.70;;
72358;SDS011;60317;48.880;-0.862;2023-02-24T01:23:40;3.97;;;2.60;;
72358;SDS011;60317;48.880;-0.862;2023-02-24T01:26:07;4.10;;;2.80;;
72358;SDS011;60317;48.880;-0.862;2023-02-24T01:28:34;3.88;;;2.60;;
72358;SDS011;60317;48.880;-0.862;2023-02-24T01:31:03;4.88;;;2.90;;
72358;SDS011;60317;48.880;-0.862;2023-02-24T01:33:31;4.05;;;2.67;;
72358;SDS011;60317;48.880;-0.862;2023-02-24T01:36:06;3.65;;;2.50;;
72358;SDS011;60317;48.880;-0.862;2023-02-24T01:38:34;4.28;;;2.50;;
72358;SDS011;60317;48.880;-0.862;2023-02-24T01:41:01;4.43;;;2.70;;
72358;SDS011;60317;48.880;-0.862;2023-02-24T01:43:28;4.03;;;2.63;;
72358;SDS011;60317;48.880;-0.862;2023-02-24T01:45:54;5.18;;;2.80;;
72358;SDS011;60317;48.880;-0.862;2023-02-24T01:48:22;4.22;;;2.60;;
72358;SDS011;60317;48.880;-0.862;2023-02-24T01:50:49;3.78;;;2.75;;
72358;SDS011;60317;48.880;-0.862;2023-02-24T01:53:17;3.30;;;2.40;;
72358;SDS011;60317;48.880;-0.862;2023-02-24T01:55:45;6.32;;;3.20;;
72358;SDS011;60317;48.880;-0.862;2023-02-24T01:58:18;4.30;;;2.70;;
72358;SDS011;60317;48.880;-0.862;2023-02-24T02:00:48;4.43;;;2.43;;
72358;SDS011;60317;48.880;-0.862;2023-02-24T02:03:18;4.43;;;2.78;;
72358;SDS011;60317;48.880;-0.862;2023-02-24T02:05:50;4.70;;;2.80;;
72358;SDS011;60317;48.880;-0.862;2023-02-24T02:08:18;4.10;;;2.55;;
72358;SDS011;60317;48.880;-0.862;2023-02-24T02:10:46;4.88;;;2.55;;
72358;SDS011;60317;48.880;-0.862;2023-02-24T02:13:13;4.22;;;2.75;;
72358;SDS011;60317;48.880;-0.862;2023-02-24T02:15:44;5.63;;;2.72;;
72358;SDS011;60317;48.880;-0.862;2023-02-24T02:18:21;3.13;;;2.38;;
72358;SDS011;60317;48.880;-0.862;2023-02-24T02:21:02;5.10;;;2.67;;
72358;SDS011;60317;48.880;-0.862;2023-02-24T02:23:41;3.53;;;2.40;;
72358;SDS011;60317;48.880;-0.862;2023-02-24T02:26:24;3.83;;;2.58;;
72358;SDS011;60317;48.880;-0.862;2023-02-24T02:29:11;3.25;;;2.40;;
72358;SDS011;60317;48.880;-0.862;2023-02-24T02:32:01;3.40;;;2.40;;
72358;SDS011;60317;48.880;-0.862;2023-02-24T02:34:45;3.15;;;2.17;;
72358;SDS011;60317;48.880;-0.862;2023-02-24T02:37:19;3.38;;;2.30;;
72358;SDS011;60317;48.880;-0.862;2023-02-24T02:39:52;4.80;;;2.33;;
72358;SDS011;60317;48.880;-0.862;2023-02-24T02:42:29;4.07;;;2.10;;
72358;SDS011;60317;48.880;-0.862;2023-02-24T02:45:03;3.70;;;2.40;;
72358;SDS011;60317;48.880;-0.862;2023-02-24T02:47:36;4.38;;;2.40;;
72358;SDS011;60317;48.880;-0.862;2023-02-24T02:50:11;4.07;;;2.10;;
72358;SDS011;60317;48.880;-0.862;2023-02-24T02:52:42;4.78;;;2.40;;
72358;SDS011;60317;48.880;-0.862;2023-02-24T02:55:17;4.15;;;2.40;;
72358;SDS011;60317;48.880;-0.862;2023-02-24T02:57:47;3.38;;;2.25;;
72358;SDS011;60317;48.880;-0.862;2023-02-24T03:00:18;3.95;;;2.50;;
72358;SDS011;60317;48.880;-0.862;2023-02-24T03:02:50;4.25;;;2.63;;
72358;SDS011;60317;48.880;-0.862;2023-02-24T03:05:21;4.65;;;2.63;;
72358;SDS011;60317;48.880;-0.862;2023-02-24T03:07:54;3.30;;;2.00;;
72358;SDS011;60317;48.880;-0.862;2023-02-24T03:10:24;3.70;;;2.30;;
72358;SDS011;60317;48.880;-0.862;2023-02-24T03:12:56;3.33;;;2.30;;
72358;SDS011;60317;48.880;-0.862;2023-02-24T03:15:27;4.50;;;2.58;;
72358;SDS011;60317;48.880;-0.862;2023-02-24T03:17:57;3.42;;;2.40;;
72358;SDS011;60317;48.880;-0.862;2023-02-24T03:20:28;3.60;;;2.10;;
72358;SDS011;60317;48.880;-0.862;2023-02-24T03:23:06;3.85;;;2.22;;
72358;SDS011;60317;48.880;-0.862;2023-02-24T03:25:38;2.20;;;1.77;;
72358;SDS011;60317;48.880;-0.862;2023-02-24T03:28:10;4.43;;;2.40;;
72358;SDS011;60317;48.880;-0.862;2023-02-24T03:30:44;3.33;;;2.08;;
72358;SDS011;60317;48.880;-0.862;2023-02-24T03:33:15;3.25;;;2.42;;
72358;SDS011;60317;48.880;-0.862;2023-02-24T03:35:47;4.00;;;2.40;;
72358;SDS011;60317;48.880;-0.862;2023-02-24T03:38:14;3.88;;;2.10;;
72358;SDS011;60317;48.880;-0.862;2023-02-24T03:40:40;5.35;;;2.22;;
72358;SDS011;60317;48.880;-0.862;2023-02-24T03:43:08;2.63;;;1.98;;
72358;SDS011;60317;48.880;-0.862;2023-02-24T03:45:41;3.38;;;2.08;;
72358;SDS011;60317;48.880;-0.862;2023-02-24T03:48:09;3.80;;;2.17;;
72358;SDS011;60317;48.880;-0.862;2023-02-24T03:50:36;4.38;;;2.35;;
72358;SDS011;60317;48.880;-0.862;2023-02-24T03:53:09;4.00;;;2.40;;
72358;SDS011;60317;48.880;-0.862;2023-02-24T03:55:48;3.90;;;2.08;;
72358;SDS011;60317;48.880;-0.862;2023-02-24T03:58:26;3.00;;;2.25;;
72358;SDS011;60317;48.880;-0.862;2023-02-24T04:01:03;3.25;;;2.15;;
72358;SDS011;60317;48.880;-0.862;2023-02-24T04:03:37;3.65;;;2.30;;
72358;SDS011;60317;48.880;-0.862;2023-02-24T04:06:15;3.28;;;2.10;;
72358;SDS011;60317;48.880;-0.862;2023-02-24T04:08:48;3.03;;;2.08;;
72358;SDS011;60317;48.880;-0.862;2023-02-24T04:11:22;3.30;;;2.08;;
72358;SDS011;60317;48.880;-0.862;2023-02-24T04:13:53;4.28;;;2.20;;
72358;SDS011;60317;48.880;-0.862;2023-02-24T04:16:27;3.78;;;1.85;;
72358;SDS011;60317;48.880;-0.862;2023-02-24T04:19:01;4.32;;;2.63;;
72358;SDS011;60317;48.880;-0.862;2023-02-24T04:21:30;3.58;;;2.30;;
72358;SDS011;60317;48.880;-0.862;2023-02-24T04:23:59;3.75;;;2.00;;
72358;SDS011;60317;48.880;-0.862;2023-02-24T04:26:30;3.30;;;2.20;;
72358;SDS011;60317;48.880;-0.862;2023-02-24T04:29:01;3.17;;;2.00;;
72358;SDS011;60317;48.880;-0.862;2023-02-24T04:31:28;3.53;;;2.20;;
72358;SDS011;60317;48.880;-0.862;2023-02-24T04:33:58;3.40;;;2.30;;
72358;SDS011;60317;48.880;-0.862;2023-02-24T04:36:24;3.35;;;2.33;;
72358;SDS011;60317;48.880;-0.862;2023-02-24T04:38:51;3.35;;;2.03;;
72358;SDS011;60317;48.880;-0.862;2023-02-24T04:41:19;3.53;;;2.20;;
72358;SDS011;60317;48.880;-0.862;2023-02-24T04:43:47;3.70;;;2.55;;
72358;SDS011;60317;48.880;-0.862;2023-02-24T04:46:14;3.70;;;2.72;;
72358;SDS011;60317;48.880;-0.862;2023-02-24T04:48:41;3.83;;;2.22;;
72358;SDS011;60317;48.880;-0.862;2023-02-24T04:51:08;3.63;;;2.35;;
72358;SDS011;60317;48.880;-0.862;2023-02-24T04:53:34;3.40;;;2.25;;
72358;SDS011;60317;48.880;-0.862;2023-02-24T04:56:01;3.78;;;2.20;;
72358;SDS011;60317;48.880;-0.862;2023-02-24T04:58:30;2.88;;;1.95;;
72358;SDS011;60317;48.880;-0.862;2023-02-24T05:00:56;3.55;;;2.20;;
72358;SDS011;60317;48.880;-0.862;2023-02-24T05:03:23;2.90;;;1.90;;
72358;SDS011;60317;48.880;-0.862;2023-02-24T05:05:51;3.10;;;1.95;;
72358;SDS011;60317;48.880;-0.862;2023-02-24T05:08:19;3.28;;;2.05;;
72358;SDS011;60317;48.880;-0.862;2023-02-24T05:10:45;3.42;;;2.17;;
72358;SDS011;60317;48.880;-0.862;2023-02-24T05:13:13;3.22;;;1.83;;
72358;SDS011;60317;48.880;-0.862;2023-02-24T05:15:42;3.47;;;2.08;;
72358;SDS011;60317;48.880;-0.862;2023-02-24T05:18:11;3.63;;;2.05;;
72358;SDS011;60317;48.880;-0.862;2023-02-24T05:20:40;3.85;;;2.30;;
72358;SDS011;60317;48.880;-0.862;2023-02-24T05:23:08;3.33;;;2.00;;
72358;SDS011;60317;48.880;-0.862;2023-02-24T05:25:35;2.75;;;2.22;;
72358;SDS011;60317;48.880;-0.862;2023-02-24T05:28:02;3.83;;;2.10;;
72358;SDS011;60317;48.880;-0.862;2023-02-24T05:30:28;4.18;;;2.00;;
72358;SDS011;60317;48.880;-0.862;2023-02-24T05:32:56;4.63;;;2.28;;
72358;SDS011;60317;48.880;-0.862;2023-02-24T05:35:23;2.72;;;2.10;;
72358;SDS011;60317;48.880;-0.862;2023-02-24T05:37:49;4.80;;;2.20;;
72358;SDS011;60317;48.880;-0.862;2023-02-24T05:40:16;4.00;;;2.15;;
72358;SDS011;60317;48.880;-0.862;2023-02-24T05:42:43;3.20;;;2.10;;
72358;SDS011;60317;48.880;-0.862;2023-02-24T05:45:10;3.28;;;2.20;;
72358;SDS011;60317;48.880;-0.862;2023-02-24T05:47:37;3.85;;;2.40;;
72358;SDS011;60317;48.880;-0.862;2023-02-24T05:50:06;4.43;;;2.20;;
72358;SDS011;60317;48.880;-0.862;2023-02-24T05:52:33;3.60;;;2.20;;
72358;SDS011;60317;48.880;-0.862;2023-02-24T05:55:00;4.65;;;1.98;;
72358;SDS011;60317;48.880;-0.862;2023-02-24T05:57:27;3.30;;;2.20;;
72358;SDS011;60317;48.880;-0.862;2023-02-24T05:59:53;3.58;;;1.98;;
72358;SDS011;60317;48.880;-0.862;2023-02-24T06:02:20;3.22;;;2.10;;
72358;SDS011;60317;48.880;-0.862;2023-02-24T06:04:46;3.10;;;2.13;;
72358;SDS011;60317;48.880;-0.862;2023-02-24T06:07:15;3.72;;;2.10;;
72358;SDS011;60317;48.880;-0.862;2023-02-24T06:09:43;3.72;;;2.35;;
72358;SDS011;60317;48.880;-0.862;2023-02-24T06:12:11;3.40;;;2.30;;
72358;SDS011;60317;48.880;-0.862;2023-02-24T06:14:37;4.03;;;2.15;;
72358;SDS011;60317;48.880;-0.862;2023-02-24T06:17:04;3.35;;;1.92;;
72358;SDS011;60317;48.880;-0.862;2023-02-24T06:19:30;4.63;;;2.35;;
72358;SDS011;60317;48.880;-0.862;2023-02-24T06:21:57;3.30;;;2.00;;
72358;SDS011;60317;48.880;-0.862;2023-02-24T06:24:26;3.05;;;1.90;;
72358;SDS011;60317;48.880;-0.862;2023-02-24T06:26:54;3.13;;;2.00;;
72358;SDS011;60317;48.880;-0.862;2023-02-24T06:29:20;4.13;;;2.20;;
72358;SDS011;60317;48.880;-0.862;2023-02-24T06:31:47;2.75;;;1.95;;
72358;SDS011;60317;48.880;-0.862;2023-02-24T06:34:14;2.75;;;1.80;;
72358;SDS011;60317;48.880;-0.862;2023-02-24T06:36:40;3.22;;;1.98;;
72358;SDS011;60317;48.880;-0.862;2023-02-24T06:39:07;3.55;;;1.90;;
72358;SDS011;60317;48.880;-0.862;2023-02-24T06:41:35;2.20;;;1.63;;
72358;SDS011;60317;48.880;-0.862;2023-02-24T06:44:01;2.55;;;1.70;;
72358;SDS011;60317;48.880;-0.862;2023-02-24T06:46:28;2.60;;;1.70;;
72358;SDS011;60317;48.880;-0.862;2023-02-24T06:48:55;3.10;;;1.80;;
72358;SDS011;60317;48.880;-0.862;2023-02-24T06:51:21;1.92;;;1.58;;
72358;SDS011;60317;48.880;-0.862;2023-02-24T06:53:49;2.42;;;1.90;;
72358;SDS011;60317;48.880;-0.862;2023-02-24T06:56:16;3.22;;;1.98;;
72358;SDS011;60317;48.880;-0.862;2023-02-24T06:58:45;2.05;;;1.60;;
72358;SDS011;60317;48.880;-0.862;2023-02-24T07:01:14;3.03;;;1.70;;
72358;SDS011;60317;48.880;-0.862;2023-02-24T07:03:42;3.45;;;1.80;;
72358;SDS011;60317;48.880;-0.862;2023-02-24T07:06:10;2.78;;;1.88;;
72358;SDS011;60317;48.880;-0.862;2023-02-24T07:08:37;2.63;;;1.63;;
72358;SDS011;60317;48.880;-0.862;2023-02-24T07:11:04;4.05;;;1.92;;
72358;SDS011;60317;48.880;-0.862;2023-02-24T07:13:31;2.78;;;1.83;;
72358;SDS011;60317;48.880;-0.862;2023-02-24T07:15:59;3.33;;;1.30;;
72358;SDS011;60317;48.880;-0.862;2023-02-24T07:18:26;2.85;;;1.58;;
72358;SDS011;60317;48.880;-0.862;2023-02-24T07:20:53;2.47;;;1.60;;
72358;SDS011;60317;48.880;-0.862;2023-02-24T07:23:20;2.22;;;1.70;;
72358;SDS011;60317;48.880;-0.862;2023-02-24T07:25:46;3.13;;;1.67;;
72358;SDS011;60317;48.880;-0.862;2023-02-24T07:28:13;2.80;;;1.67;;
72358;SDS011;60317;48.880;-0.862;2023-02-24T07:30:40;1.42;;;1.30;;
72358;SDS011;60317;48.880;-0.862;2023-02-24T07:33:08;1.80;;;1.60;;
72358;SDS011;60317;48.880;-0.862;2023-02-24T07:35:35;3.00;;;1.48;;
72358;SDS011;60317;48.880;-0.862;2023-02-24T07:38:01;2.40;;;1.48;;
72358;SDS011;60317;48.880;-0.862;2023-02-24T07:40:29;1.63;;;1.27;;
72358;SDS011;60317;48.880;-0.862;2023-02-24T07:42:58;2.05;;;1.40;;
72358;SDS011;60317;48.880;-0.862;2023-02-24T07:45:25;3.55;;;2.00;;
72358;SDS011;60317;48.880;-0.862;2023-02-24T07:47:52;1.52;;;1.35;;
72358;SDS011;60317;48.880;-0.862;2023-02-24T07:50:20;3.80;;;1.50;;
72358;SDS011;60317;48.880;-0.862;2023-02-24T07:52:47;2.60;;;1.60;;
72358;SDS011;60317;48.880;-0.862;2023-02-24T07:55:13;5.63;;;1.80;;
72358;SDS011;60317;48.880;-0.862;2023-02-24T07:57:40;2.65;;;1.63;;
72358;SDS011;60317;48.880;-0.862;2023-02-24T08:00:08;2.45;;;1.40;;
72358;SDS011;60317;48.880;-0.862;2023-02-24T08:02:38;2.63;;;1.48;;
72358;SDS011;60317;48.880;-0.862;2023-02-24T08:05:05;1.67;;;1.35;;
72358;SDS011;60317;48.880;-0.862;2023-02-24T08:07:32;1.77;;;1.48;;
72358;SDS011;60317;48.880;-0.862;2023-02-24T08:09:59;2.08;;;1.50;;
72358;SDS011;60317;48.880;-0.862;2023-02-24T08:12:26;1.92;;;1.30;;
72358;SDS011;60317;48.880;-0.862;2023-02-24T08:14:54;2.22;;;1.65;;
72358;SDS011;60317;48.880;-0.862;2023-02-24T08:17:22;1.92;;;1.40;;
72358;SDS011;60317;48.880;-0.862;2023-02-24T08:19:51;2.88;;;1.55;;
72358;SDS011;60317;48.880;-0.862;2023-02-24T08:22:18;4.95;;;1.92;;
72358;SDS011;60317;48.880;-0.862;2023-02-24T08:24:46;2.60;;;1.60;;
72358;SDS011;60317;48.880;-0.862;2023-02-24T08:27:16;3.70;;;1.67;;
72358;SDS011;60317;48.880;-0.862;2023-02-24T08:29:43;3.47;;;2.15;;
72358;SDS011;60317;48.880;-0.862;2023-02-24T08:32:13;7.72;;;2.30;;
72358;SDS011;60317;48.880;-0.862;2023-02-24T08:34:40;4.63;;;2.30;;
72358;SDS011;60317;48.880;-0.862;2023-02-24T08:37:06;4.57;;;2.45;;
72358;SDS011;60317;48.880;-0.862;2023-02-24T08:39:33;5.15;;;2.22;;
72358;SDS011;60317;48.880;-0.862;2023-02-24T08:42:01;4.45;;;2.33;;
72358;SDS011;60317;48.880;-0.862;2023-02-24T08:44:27;5.78;;;2.45;;
72358;SDS011;60317;48.880;-0.862;2023-02-24T08:46:54;4.55;;;2.35;;
72358;SDS011;60317;48.880;-0.862;2023-02-24T08:49:22;4.97;;;2.25;;
72358;SDS011;60317;48.880;-0.862;2023-02-24T08:51:50;4.90;;;2.45;;
72358;SDS011;60317;48.880;-0.862;2023-02-24T08:54:18;4.68;;;1.90;;
72358;SDS011;60317;48.880;-0.862;2023-02-24T08:56:47;3.65;;;1.90;;
72358;SDS011;60317;48.880;-0.862;2023-02-24T08:59:16;4.97;;;2.15;;
72358;SDS011;60317;48.880;-0.862;2023-02-24T09:01:43;4.38;;;2.47;;
72358;SDS011;60317;48.880;-0.862;2023-02-24T09:04:15;3.95;;;1.98;;
72358;SDS011;60317;48.880;-0.862;2023-02-24T09:06:43;4.40;;;2.00;;
72358;SDS011;60317;48.880;-0.862;2023-02-24T09:09:11;4.65;;;2.30;;
72358;SDS011;60317;48.880;-0.862;2023-02-24T09:11:40;6.40;;;2.55;;
72358;SDS011;60317;48.880;-0.862;2023-02-24T09:14:07;3.30;;;1.60;;
72358;SDS011;60317;48.880;-0.862;2023-02-24T09:16:51;4.40;;;1.98;;
72358;SDS011;60317;48.880;-0.862;2023-02-24T09:19:18;3.60;;;1.70;;
72358;SDS011;60317;48.880;-0.862;2023-02-24T09:21:44;4.07;;;2.00;;
72358;SDS011;60317;48.880;-0.862;2023-02-24T09:24:11;4.85;;;2.08;;
72358;SDS011;60317;48.880;-0.862;2023-02-24T09:26:37;4.53;;;2.00;;
72358;SDS011;60317;48.880;-0.862;2023-02-24T09:29:04;3.88;;;1.90;;
72358;SDS011;60317;48.880;-0.862;2023-02-24T09:31:30;4.07;;;1.70;;
72358;SDS011;60317;48.880;-0.862;2023-02-24T09:33:58;3.83;;;1.70;;
72358;SDS011;60317;48.880;-0.862;2023-02-24T09:36:25;3.05;;;2.20;;
72358;SDS011;60317;48.880;-0.862;2023-02-24T09:38:52;2.80;;;1.80;;
72358;SDS011;60317;48.880;-0.862;2023-02-24T09:41:22;9.75;;;1.98;;
72358;SDS011;60317;48.880;-0.862;2023-02-24T09:43:53;4.30;;;2.00;;
72358;SDS011;60317;48.880;-0.862;2023-02-24T09:46:20;11.77;;;2.13;;
72358;SDS011;60317;48.880;-0.862;2023-02-24T09:48:48;4.75;;;1.90;;
72358;SDS011;60317;48.880;-0.862;2023-02-24T09:51:21;7.18;;;2.00;;
72358;SDS011;60317;48.880;-0.862;2023-02-24T09:53:49;4.18;;;1.60;;
72358;SDS011;60317;48.880;-0.862;2023-02-24T09:56:19;4.28;;;1.40;;
72358;SDS011;60317;48.880;-0.862;2023-02-24T09:58:56;8.80;;;2.00;;
72358;SDS011;60317;48.880;-0.862;2023-02-24T10:01:32;5.70;;;1.52;;
72358;SDS011;60317;48.880;-0.862;2023-02-24T10:04:09;4.32;;;1.45;;
72358;SDS011;60317;48.880;-0.862;2023-02-24T10:06:49;2.65;;;1.50;;
72358;SDS011;60317;48.880;-0.862;2023-02-24T10:09:18;4.32;;;1.67;;
72358;SDS011;60317;48.880;-0.862;2023-02-24T10:11:49;3.13;;;1.50;;
72358;SDS011;60317;48.880;-0.862;2023-02-24T10:14:20;4.45;;;1.70;;
72358;SDS011;60317;48.880;-0.862;2023-02-24T10:17:09;3.08;;;1.50;;
72358;SDS011;60317;48.880;-0.862;2023-02-24T10:19:41;3.05;;;1.40;;
72358;SDS011;60317;48.880;-0.862;2023-02-24T10:22:12;3.80;;;1.60;;
72358;SDS011;60317;48.880;-0.862;2023-02-24T10:24:44;4.03;;;1.67;;
72358;SDS011;60317;48.880;-0.862;2023-02-24T10:27:15;2.92;;;1.20;;
72358;SDS011;60317;48.880;-0.862;2023-02-24T10:29:49;2.88;;;1.25;;
72358;SDS011;60317;48.880;-0.862;2023-02-24T10:32:27;1.30;;;1.20;;
72358;SDS011;60317;48.880;-0.862;2023-02-24T10:35:01;3.97;;;1.58;;
72358;SDS011;60317;48.880;-0.862;2023-02-24T10:37:29;2.60;;;1.20;;
72358;SDS011;60317;48.880;-0.862;2023-02-24T10:39:57;3.45;;;1.85;;
72358;SDS011;60317;48.880;-0.862;2023-02-24T10:42:26;3.80;;;1.50;;
72358;SDS011;60317;48.880;-0.862;2023-02-24T10:45:03;2.45;;;1.30;;
72358;SDS011;60317;48.880;-0.862;2023-02-24T10:47:35;1.98;;;1.20;;
72358;SDS011;60317;48.880;-0.862;2023-02-24T10:50:02;2.03;;;1.20;;
72358;SDS011;60317;48.880;-0.862;2023-02-24T10:52:31;1.60;;;0.98;;
72358;SDS011;60317;48.880;-0.862;2023-02-24T10:55:00;2.13;;;1.38;;
72358;SDS011;60317;48.880;-0.862;2023-02-24T10:57:30;2.30;;;1.30;;
72358;SDS011;60317;48.880;-0.862;2023-02-24T10:59:57;1.77;;;1.17;;
72358;SDS011;60317;48.880;-0.862;2023-02-24T11:02:24;1.92;;;1.40;;
72358;SDS011;60317;48.880;-0.862;2023-02-24T11:04:52;2.20;;;1.38;;
72358;SDS011;60317;48.880;-0.862;2023-02-24T11:07:19;3.20;;;1.33;;
72358;SDS011;60317;48.880;-0.862;2023-02-24T11:09:47;2.10;;;1.30;;
72358;SDS011;60317;48.880;-0.862;2023-02-24T11:12:14;2.33;;;1.30;;
72358;SDS011;60317;48.880;-0.862;2023-02-24T11:14:47;2.85;;;1.30;;
72358;SDS011;60317;48.880;-0.862;2023-02-24T11:17:18;5.55;;;1.25;;
72358;SDS011;60317;48.880;-0.862;2023-02-24T11:19:46;2.53;;;1.20;;
72358;SDS011;60317;48.880;-0.862;2023-02-24T11:22:16;3.20;;;1.10;;
72358;SDS011;60317;48.880;-0.862;2023-02-24T11:24:48;4.20;;;1.17;;
72358;SDS011;60317;48.880;-0.862;2023-02-24T11:27:17;4.50;;;1.25;;
72358;SDS011;60317;48.880;-0.862;2023-02-24T11:29:53;3.28;;;1.40;;
72358;SDS011;60317;48.880;-0.862;2023-02-24T11:32:36;3.40;;;1.58;;
72358;SDS011;60317;48.880;-0.862;2023-02-24T11:35:19;2.70;;;1.20;;
72358;SDS011;60317;48.880;-0.862;2023-02-24T11:37:53;3.33;;;1.50;;
72358;SDS011;60317;48.880;-0.862;2023-02-24T11:40:29;2.22;;;1.13;;
72358;SDS011;60317;48.880;-0.862;2023-02-24T11:43:03;2.53;;;1.30;;
72358;SDS011;60317;48.880;-0.862;2023-02-24T11:45:37;4.28;;;1.48;;
72358;SDS011;60317;48.880;-0.862;2023-02-24T11:48:09;3.85;;;1.30;;
72358;SDS011;60317;48.880;-0.862;2023-02-24T11:50:38;1.73;;;1.25;;
72358;SDS011;60317;48.880;-0.862;2023-02-24T11:53:13;3.55;;;1.50;;
72358;SDS011;60317;48.880;-0.862;2023-02-24T11:55:52;2.00;;;0.90;;
72358;SDS011;60317;48.880;-0.862;2023-02-24T11:58:24;2.67;;;1.10;;
72358;SDS011;60317;48.880;-0.862;2023-02-24T12:00:56;3.50;;;1.10;;
72358;SDS011;60317;48.880;-0.862;2023-02-24T12:03:29;2.90;;;1.35;;
72358;SDS011;60317;48.880;-0.862;2023-02-24T12:06:04;3.05;;;1.10;;
72358;SDS011;60317;48.880;-0.862;2023-02-24T12:08:40;2.72;;;1.35;;
72358;SDS011;60317;48.880;-0.862;2023-02-24T12:11:13;3.33;;;1.30;;
72358;SDS011;60317;48.880;-0.862;2023-02-24T12:13:47;4.30;;;1.10;;
72358;SDS011;60317;48.880;-0.862;2023-02-24T12:16:18;2.42;;;1.10;;
72358;SDS011;60317;48.880;-0.862;2023-02-24T12:18:49;3.63;;;1.00;;
72358;SDS011;60317;48.880;-0.862;2023-02-24T12:21:24;2.75;;;1.17;;
72358;SDS011;60317;48.880;-0.862;2023-02-24T12:23:55;3.08;;;1.30;;
72358;SDS011;60317;48.880;-0.862;2023-02-24T12:26:24;3.63;;;1.05;;
72358;SDS011;60317;48.880;-0.862;2023-02-24T12:31:35;2.08;;;0.90;;
72358;SDS011;60317;48.880;-0.862;2023-02-24T12:34:11;2.53;;;1.27;;
72358;SDS011;60317;48.880;-0.862;2023-02-24T12:36:51;1.58;;;0.85;;
72358;SDS011;60317;48.880;-0.862;2023-02-24T12:39:28;1.48;;;0.93;;
72358;SDS011;60317;48.880;-0.862;2023-02-24T12:42:06;3.15;;;1.33;;
72358;SDS011;60317;48.880;-0.862;2023-02-24T12:44:43;1.42;;;0.93;;
72358;SDS011;60317;48.880;-0.862;2023-02-24T12:47:16;1.45;;;0.90;;
72358;SDS011;60317;48.880;-0.862;2023-02-24T12:49:57;2.00;;;0.95;;
72358;SDS011;60317;48.880;-0.862;2023-02-24T12:52:37;5.50;;;1.23;;
72358;SDS011;60317;48.880;-0.862;2023-02-24T12:55:16;3.50;;;1.20;;
72358;SDS011;60317;48.880;-0.862;2023-02-24T12:57:50;2.08;;;1.08;;
72358;SDS011;60317;48.880;-0.862;2023-02-24T13:00:27;1.98;;;1.00;;
72358;SDS011;60317;48.880;-0.862;2023-02-24T13:03:04;2.53;;;0.95;;
72358;SDS011;60317;48.880;-0.862;2023-02-24T13:05:38;1.90;;;1.00;;
72358;SDS011;60317;48.880;-0.862;2023-02-24T13:08:14;1.60;;;0.95;;
72358;SDS011;60317;48.880;-0.862;2023-02-24T13:10:50;3.28;;;0.88;;
72358;SDS011;60317;48.880;-0.862;2023-02-24T13:13:30;4.47;;;1.00;;
72358;SDS011;60317;48.880;-0.862;2023-02-24T13:16:02;0.80;;;0.68;;
72358;SDS011;60317;48.880;-0.862;2023-02-24T13:18:29;1.55;;;0.73;;
72358;SDS011;60317;48.880;-0.862;2023-02-24T13:21:01;1.38;;;0.90;;
72358;SDS011;60317;48.880;-0.862;2023-02-24T13:23:29;2.20;;;0.90;;
72358;SDS011;60317;48.880;-0.862;2023-02-24T13:25:57;2.60;;;1.10;;
72358;SDS011;60317;48.880;-0.862;2023-02-24T13:28:24;2.15;;;0.85;;
72358;SDS011;60317;48.880;-0.862;2023-02-24T13:30:58;1.73;;;1.08;;
72358;SDS011;60317;48.880;-0.862;2023-02-24T13:33:29;2.10;;;0.80;;
72358;SDS011;60317;48.880;-0.862;2023-02-24T13:36:06;0.85;;;0.70;;
72358;SDS011;60317;48.880;-0.862;2023-02-24T13:38:36;1.48;;;0.70;;
72358;SDS011;60317;48.880;-0.862;2023-02-24T13:41:06;2.30;;;0.70;;
72358;SDS011;60317;48.880;-0.862;2023-02-24T13:43:34;0.98;;;0.65;;
72358;SDS011;60317;48.880;-0.862;2023-02-24T13:46:03;2.58;;;1.05;;
72358;SDS011;60317;48.880;-0.862;2023-02-24T13:48:46;2.38;;;0.60;;
72358;SDS011;60317;48.880;-0.862;2023-02-24T13:51:28;1.83;;;0.60;;
72358;SDS011;60317;48.880;-0.862;2023-02-24T13:54:16;1.48;;;0.77;;
72358;SDS011;60317;48.880;-0.862;2023-02-24T13:56:54;2.50;;;1.08;;
72358;SDS011;60317;48.880;-0.862;2023-02-24T14:02:13;2.65;;;1.05;;
72358;SDS011;60317;48.880;-0.862;2023-02-24T14:04:46;1.42;;;0.70;;
72358;SDS011;60317;48.880;-0.862;2023-02-24T14:07:17;1.45;;;0.63;;
72358;SDS011;60317;48.880;-0.862;2023-02-24T14:09:47;1.73;;;0.80;;
72358;SDS011;60317;48.880;-0.862;2023-02-24T14:12:19;3.38;;;0.80;;
72358;SDS011;60317;48.880;-0.862;2023-02-24T14:14:48;1.42;;;0.80;;
72358;SDS011;60317;48.880;-0.862;2023-02-24T14:17:20;2.42;;;0.80;;
72358;SDS011;60317;48.880;-0.862;2023-02-24T14:19:48;2.83;;;0.80;;
72358;SDS011;60317;48.880;-0.862;2023-02-24T14:22:16;2.78;;;0.88;;
72358;SDS011;60317;48.880;-0.862;2023-02-24T14:24:44;3.10;;;1.23;;
72358;SDS011;60317;48.880;-0.862;2023-02-24T14:27:13;1.70;;;0.80;;
72358;SDS011;60317;48.880;-0.862;2023-02-24T14:29:47;2.17;;;0.90;;
72358;SDS011;60317;48.880;-0.862;2023-02-24T14:32:18;1.15;;;0.60;;
72358;SDS011;60317;48.880;-0.862;2023-02-24T14:34:48;1.55;;;0.88;;
72358;SDS011;60317;48.880;-0.862;2023-02-24T14:37:15;1.48;;;0.70;;
72358;SDS011;60317;48.880;-0.862;2023-02-24T14:39:49;1.65;;;0.50;;
72358;SDS011;60317;48.880;-0.862;2023-02-24T14:42:17;2.05;;;0.80;;
72358;SDS011;60317;48.880;-0.862;2023-02-24T14:44:45;1.90;;;0.63;;
72358;SDS011;60317;48.880;-0.862;2023-02-24T14:47:13;3.30;;;0.90;;
72358;SDS011;60317;48.880;-0.862;2023-02-24T14:49:50;1.48;;;0.75;;
72358;SDS011;60317;48.880;-0.862;2023-02-24T14:52:21;1.15;;;0.73;;
72358;SDS011;60317;48.880;-0.862;2023-02-24T14:54:56;1.30;;;0.70;;